sensor_id;sensor_type;location;lat;lon;timestamp;P1;durP1;ratioP1;P2;durP2;ratioP2
52776;SDS011;38656;54.260;20.822;2023-02-27T00:01:31;11.80;;;5.30;;
52776;SDS011;38656;54.260;20.822;2023-02-27T00:03:58;11.60;;;7.25;;
52776;SDS011;38656;54.260;20.822;2023-02-27T00:06:25;18.60;;;9.32;;
52776;SDS011;38656;54.260;20.822;2023-02-27T00:08:51;33.97;;;13.30;;
52776;SDS011;38656;54.260;20.822;2023-02-27T00:11:18;16.80;;;9.13;;
52776;SDS011;38656;54.260;20.822;2023-02-27T00:13:44;16.45;;;9.65;;
52776;SDS011;38656;54.260;20.822;2023-02-27T00:16:11;11.77;;;6.22;;
52776;SDS011;38656;54.260;20.822;2023-02-27T00:18:37;111.70;;;29.25;;
52776;SDS011;38656;54.260;20.822;2023-02-27T00:21:03;118.00;;;29.23;;
52776;SDS011;38656;54.260;20.822;2023-02-27T00:23:30;148.75;;;29.92;;
52776;SDS011;38656;54.260;20.822;2023-02-27T00:25:56;250.73;;;54.03;;
52776;SDS011;38656;54.260;20.822;2023-02-27T00:28:24;161.63;;;38.17;;
52776;SDS011;38656;54.260;20.822;2023-02-27T00:30:51;169.05;;;45.00;;
52776;SDS011;38656;54.260;20.822;2023-02-27T00:33:18;96.57;;;28.05;;
52776;SDS011;38656;54.260;20.822;2023-02-27T00:35:44;22.50;;;10.43;;
52776;SDS011;38656;54.260;20.822;2023-02-27T00:38:18;9.55;;;5.50;;
52776;SDS011;38656;54.260;20.822;2023-02-27T00:40:44;4.35;;;2.47;;
52776;SDS011;38656;54.260;20.822;2023-02-27T00:43:10;4.22;;;2.67;;
52776;SDS011;38656;54.260;20.822;2023-02-27T00:48:05;7.30;;;4.72;;
52776;SDS011;38656;54.260;20.822;2023-02-27T00:50:31;4.82;;;3.40;;
52776;SDS011;38656;54.260;20.822;2023-02-27T00:52:57;4.03;;;3.03;;
52776;SDS011;38656;54.260;20.822;2023-02-27T00:55:23;6.32;;;2.65;;
52776;SDS011;38656;54.260;20.822;2023-02-27T00:57:49;3.15;;;2.35;;
52776;SDS011;38656;54.260;20.822;2023-02-27T01:00:16;2.95;;;2.50;;
52776;SDS011;38656;54.260;20.822;2023-02-27T01:02:42;4.15;;;2.78;;
52776;SDS011;38656;54.260;20.822;2023-02-27T01:05:08;3.17;;;2.40;;
52776;SDS011;38656;54.260;20.822;2023-02-27T01:07:35;3.72;;;2.17;;
52776;SDS011;38656;54.260;20.822;2023-02-27T01:10:02;7.05;;;2.75;;
52776;SDS011;38656;54.260;20.822;2023-02-27T01:12:29;2.28;;;2.08;;
52776;SDS011;38656;54.260;20.822;2023-02-27T01:14:55;21.70;;;11.27;;
52776;SDS011;38656;54.260;20.822;2023-02-27T01:17:21;123.82;;;46.88;;
52776;SDS011;38656;54.260;20.822;2023-02-27T01:19:47;66.47;;;30.05;;
52776;SDS011;38656;54.260;20.822;2023-02-27T01:22:13;13.70;;;9.10;;
52776;SDS011;38656;54.260;20.822;2023-02-27T01:24:40;15.93;;;9.13;;
52776;SDS011;38656;54.260;20.822;2023-02-27T01:27:06;16.85;;;10.88;;
52776;SDS011;38656;54.260;20.822;2023-02-27T01:29:33;15.35;;;9.00;;
52776;SDS011;38656;54.260;20.822;2023-02-27T01:31:59;12.45;;;7.93;;
52776;SDS011;38656;54.260;20.822;2023-02-27T01:34:25;13.73;;;6.00;;
52776;SDS011;38656;54.260;20.822;2023-02-27T01:36:51;8.48;;;5.53;;
52776;SDS011;38656;54.260;20.822;2023-02-27T01:39:17;7.38;;;4.95;;
52776;SDS011;38656;54.260;20.822;2023-02-27T01:41:44;8.07;;;4.97;;
52776;SDS011;38656;54.260;20.822;2023-02-27T01:44:11;5.25;;;2.50;;
52776;SDS011;38656;54.260;20.822;2023-02-27T01:46:38;4.20;;;3.25;;
52776;SDS011;38656;54.260;20.822;2023-02-27T01:51:45;6.43;;;3.20;;
52776;SDS011;38656;54.260;20.822;2023-02-27T01:54:15;7.55;;;3.75;;
52776;SDS011;38656;54.260;20.822;2023-02-27T01:56:46;7.47;;;4.03;;
52776;SDS011;38656;54.260;20.822;2023-02-27T01:59:13;4.10;;;2.58;;
52776;SDS011;38656;54.260;20.822;2023-02-27T02:01:41;2.63;;;2.05;;
52776;SDS011;38656;54.260;20.822;2023-02-27T02:07:05;2.67;;;2.15;;
52776;SDS011;38656;54.260;20.822;2023-02-27T02:09:35;3.00;;;1.75;;
52776;SDS011;38656;54.260;20.822;2023-02-27T02:12:12;2.10;;;1.63;;
52776;SDS011;38656;54.260;20.822;2023-02-27T02:14:41;2.25;;;1.60;;
52776;SDS011;38656;54.260;20.822;2023-02-27T02:22:43;2.30;;;1.50;;
52776;SDS011;38656;54.260;20.822;2023-02-27T02:45:26;2.08;;;1.90;;
52776;SDS011;38656;54.260;20.822;2023-02-27T02:48:04;2.50;;;2.33;;
52776;SDS011;38656;54.260;20.822;2023-02-27T02:53:49;4.05;;;2.30;;
52776;SDS011;38656;54.260;20.822;2023-02-27T02:56:23;2.30;;;2.05;;
52776;SDS011;38656;54.260;20.822;2023-02-27T03:01:32;2.97;;;2.15;;
52776;SDS011;38656;54.260;20.822;2023-02-27T03:04:08;2.85;;;2.25;;
52776;SDS011;38656;54.260;20.822;2023-02-27T03:06:40;7.95;;;2.97;;
52776;SDS011;38656;54.260;20.822;2023-02-27T03:09:58;4.65;;;2.10;;
52776;SDS011;38656;54.260;20.822;2023-02-27T03:12:02;4.43;;;2.75;;
52776;SDS011;38656;54.260;20.822;2023-02-27T03:14:40;4.88;;;2.75;;
52776;SDS011;38656;54.260;20.822;2023-02-27T03:17:09;3.58;;;2.22;;
52776;SDS011;38656;54.260;20.822;2023-02-27T03:22:22;6.95;;;3.30;;
52776;SDS011;38656;54.260;20.822;2023-02-27T03:24:57;4.90;;;2.70;;
52776;SDS011;38656;54.260;20.822;2023-02-27T03:27:29;4.63;;;2.95;;
52776;SDS011;38656;54.260;20.822;2023-02-27T03:30:06;5.10;;;2.80;;
52776;SDS011;38656;54.260;20.822;2023-02-27T03:32:43;2.80;;;2.60;;
52776;SDS011;38656;54.260;20.822;2023-02-27T03:35:21;2.70;;;2.50;;
52776;SDS011;38656;54.260;20.822;2023-02-27T03:41:03;7.18;;;3.53;;
52776;SDS011;38656;54.260;20.822;2023-02-27T03:43:35;11.45;;;6.30;;
52776;SDS011;38656;54.260;20.822;2023-02-27T03:46:12;9.60;;;5.93;;
52776;SDS011;38656;54.260;20.822;2023-02-27T03:48:47;9.60;;;5.82;;
52776;SDS011;38656;54.260;20.822;2023-02-27T03:51:15;10.95;;;5.68;;
52776;SDS011;38656;54.260;20.822;2023-02-27T03:53:58;6.78;;;4.32;;
52776;SDS011;38656;54.260;20.822;2023-02-27T03:56:43;6.60;;;3.50;;
52776;SDS011;38656;54.260;20.822;2023-02-27T03:59:19;6.32;;;3.83;;
52776;SDS011;38656;54.260;20.822;2023-02-27T04:01:47;6.18;;;2.90;;
52776;SDS011;38656;54.260;20.822;2023-02-27T04:04:16;8.80;;;2.97;;
52776;SDS011;38656;54.260;20.822;2023-02-27T04:06:56;3.95;;;2.42;;
52776;SDS011;38656;54.260;20.822;2023-02-27T04:09:48;8.88;;;3.85;;
52776;SDS011;38656;54.260;20.822;2023-02-27T04:18:06;4.07;;;2.50;;
52776;SDS011;38656;54.260;20.822;2023-02-27T04:20:47;4.47;;;2.63;;
52776;SDS011;38656;54.260;20.822;2023-02-27T04:23:17;3.70;;;2.95;;
52776;SDS011;38656;54.260;20.822;2023-02-27T04:34:04;5.97;;;2.58;;
52776;SDS011;38656;54.260;20.822;2023-02-27T04:36:48;4.15;;;2.65;;
52776;SDS011;38656;54.260;20.822;2023-02-27T04:39:45;6.05;;;2.88;;
52776;SDS011;38656;54.260;20.822;2023-02-27T04:42:31;5.90;;;2.70;;
52776;SDS011;38656;54.260;20.822;2023-02-27T04:45:03;5.05;;;2.75;;
52776;SDS011;38656;54.260;20.822;2023-02-27T04:47:35;3.13;;;2.40;;
52776;SDS011;38656;54.260;20.822;2023-02-27T04:50:12;4.28;;;2.35;;
52776;SDS011;38656;54.260;20.822;2023-02-27T04:52:48;6.00;;;2.83;;
52776;SDS011;38656;54.260;20.822;2023-02-27T04:55:29;27.70;;;13.55;;
52776;SDS011;38656;54.260;20.822;2023-02-27T04:58:01;19.08;;;11.15;;
52776;SDS011;38656;54.260;20.822;2023-02-27T05:00:32;18.07;;;8.87;;
52776;SDS011;38656;54.260;20.822;2023-02-27T05:03:13;8.95;;;5.35;;
52776;SDS011;38656;54.260;20.822;2023-02-27T05:05:44;19.13;;;10.18;;
52776;SDS011;38656;54.260;20.822;2023-02-27T05:08:55;22.98;;;9.40;;
52776;SDS011;38656;54.260;20.822;2023-02-27T05:11:22;18.63;;;10.52;;
52776;SDS011;38656;54.260;20.822;2023-02-27T05:13:55;16.25;;;9.15;;
52776;SDS011;38656;54.260;20.822;2023-02-27T05:16:37;16.40;;;9.75;;
52776;SDS011;38656;54.260;20.822;2023-02-27T05:19:08;36.65;;;13.40;;
52776;SDS011;38656;54.260;20.822;2023-02-27T05:24:10;31.98;;;12.02;;
52776;SDS011;38656;54.260;20.822;2023-02-27T05:27:05;31.58;;;13.73;;
52776;SDS011;38656;54.260;20.822;2023-02-27T05:29:44;26.48;;;11.85;;
52776;SDS011;38656;54.260;20.822;2023-02-27T05:32:37;21.63;;;10.95;;
52776;SDS011;38656;54.260;20.822;2023-02-27T05:38:00;13.10;;;8.10;;
52776;SDS011;38656;54.260;20.822;2023-02-27T05:41:38;16.65;;;8.95;;
52776;SDS011;38656;54.260;20.822;2023-02-27T05:43:43;16.38;;;9.23;;
52776;SDS011;38656;54.260;20.822;2023-02-27T05:46:18;23.17;;;10.57;;
52776;SDS011;38656;54.260;20.822;2023-02-27T05:48:50;18.80;;;9.80;;
52776;SDS011;38656;54.260;20.822;2023-02-27T05:51:19;15.73;;;9.52;;
52776;SDS011;38656;54.260;20.822;2023-02-27T05:53:51;20.17;;;10.82;;
52776;SDS011;38656;54.260;20.822;2023-02-27T05:56:22;22.52;;;9.95;;
52776;SDS011;38656;54.260;20.822;2023-02-27T05:58:55;20.48;;;12.10;;
52776;SDS011;38656;54.260;20.822;2023-02-27T06:01:47;36.38;;;18.70;;
52776;SDS011;38656;54.260;20.822;2023-02-27T06:04:13;53.42;;;23.05;;
52776;SDS011;38656;54.260;20.822;2023-02-27T06:06:39;52.65;;;22.20;;
52776;SDS011;38656;54.260;20.822;2023-02-27T06:09:06;70.28;;;26.27;;
52776;SDS011;38656;54.260;20.822;2023-02-27T06:11:33;52.90;;;22.55;;
52776;SDS011;38656;54.260;20.822;2023-02-27T06:13:59;55.33;;;22.23;;
52776;SDS011;38656;54.260;20.822;2023-02-27T06:16:25;88.35;;;24.65;;
52776;SDS011;38656;54.260;20.822;2023-02-27T06:18:51;58.55;;;28.08;;
52776;SDS011;38656;54.260;20.822;2023-02-27T06:21:19;134.30;;;36.35;;
52776;SDS011;38656;54.260;20.822;2023-02-27T06:23:46;153.80;;;43.85;;
52776;SDS011;38656;54.260;20.822;2023-02-27T06:26:12;274.75;;;73.97;;
52776;SDS011;38656;54.260;20.822;2023-02-27T06:28:39;375.40;;;109.80;;
52776;SDS011;38656;54.260;20.822;2023-02-27T06:31:06;397.63;;;126.90;;
52776;SDS011;38656;54.260;20.822;2023-02-27T06:33:32;385.55;;;119.55;;
52776;SDS011;38656;54.260;20.822;2023-02-27T06:35:59;356.83;;;110.80;;
52776;SDS011;38656;54.260;20.822;2023-02-27T06:38:26;324.00;;;96.50;;
52776;SDS011;38656;54.260;20.822;2023-02-27T06:40:52;232.38;;;78.40;;
52776;SDS011;38656;54.260;20.822;2023-02-27T06:43:19;133.80;;;51.95;;
52776;SDS011;38656;54.260;20.822;2023-02-27T06:45:52;109.22;;;45.63;;
52776;SDS011;38656;54.260;20.822;2023-02-27T06:48:18;153.07;;;55.67;;
52776;SDS011;38656;54.260;20.822;2023-02-27T06:50:44;88.75;;;39.13;;
52776;SDS011;38656;54.260;20.822;2023-02-27T06:53:21;31.77;;;20.83;;
52776;SDS011;38656;54.260;20.822;2023-02-27T06:55:48;19.35;;;12.98;;
52776;SDS011;38656;54.260;20.822;2023-02-27T06:58:15;22.85;;;14.02;;
52776;SDS011;38656;54.260;20.822;2023-02-27T07:00:42;25.30;;;17.85;;
52776;SDS011;38656;54.260;20.822;2023-02-27T07:03:08;19.75;;;12.98;;
52776;SDS011;38656;54.260;20.822;2023-02-27T07:05:36;14.27;;;8.13;;
52776;SDS011;38656;54.260;20.822;2023-02-27T07:08:02;20.55;;;17.15;;
52776;SDS011;38656;54.260;20.822;2023-02-27T07:10:28;35.08;;;17.92;;
52776;SDS011;38656;54.260;20.822;2023-02-27T07:12:55;25.50;;;11.82;;
52776;SDS011;38656;54.260;20.822;2023-02-27T07:15:21;23.83;;;12.05;;
52776;SDS011;38656;54.260;20.822;2023-02-27T07:17:47;10.57;;;7.90;;
52776;SDS011;38656;54.260;20.822;2023-02-27T07:20:14;6.30;;;4.05;;
52776;SDS011;38656;54.260;20.822;2023-02-27T07:22:40;7.75;;;6.15;;
52776;SDS011;38656;54.260;20.822;2023-02-27T07:25:07;6.18;;;5.35;;
52776;SDS011;38656;54.260;20.822;2023-02-27T07:27:34;3.28;;;2.97;;
52776;SDS011;38656;54.260;20.822;2023-02-27T07:30:00;17.98;;;11.43;;
52776;SDS011;38656;54.260;20.822;2023-02-27T07:32:26;5.13;;;3.63;;
52776;SDS011;38656;54.260;20.822;2023-02-27T07:34:53;6.07;;;2.70;;
52776;SDS011;38656;54.260;20.822;2023-02-27T07:37:19;4.53;;;3.63;;
52776;SDS011;38656;54.260;20.822;2023-02-27T07:39:45;14.52;;;10.00;;
52776;SDS011;38656;54.260;20.822;2023-02-27T07:42:11;16.48;;;9.77;;
52776;SDS011;38656;54.260;20.822;2023-02-27T07:44:37;20.52;;;13.43;;
52776;SDS011;38656;54.260;20.822;2023-02-27T07:47:04;25.42;;;13.07;;
52776;SDS011;38656;54.260;20.822;2023-02-27T07:49:30;33.72;;;20.65;;
52776;SDS011;38656;54.260;20.822;2023-02-27T07:51:56;49.00;;;28.92;;
52776;SDS011;38656;54.260;20.822;2023-02-27T07:54:22;37.45;;;27.50;;
52776;SDS011;38656;54.260;20.822;2023-02-27T07:56:49;6.18;;;3.85;;
52776;SDS011;38656;54.260;20.822;2023-02-27T07:59:15;56.42;;;38.50;;
52776;SDS011;38656;54.260;20.822;2023-02-27T08:01:41;17.25;;;15.02;;
52776;SDS011;38656;54.260;20.822;2023-02-27T08:04:07;45.63;;;40.83;;
52776;SDS011;38656;54.260;20.822;2023-02-27T08:06:33;31.15;;;27.95;;
52776;SDS011;38656;54.260;20.822;2023-02-27T08:08:59;11.32;;;10.02;;
52776;SDS011;38656;54.260;20.822;2023-02-27T08:11:26;6.70;;;4.82;;
52776;SDS011;38656;54.260;20.822;2023-02-27T08:13:52;14.68;;;12.90;;
52776;SDS011;38656;54.260;20.822;2023-02-27T08:16:18;12.07;;;8.52;;
52776;SDS011;38656;54.260;20.822;2023-02-27T08:18:45;6.43;;;4.80;;
52776;SDS011;38656;54.260;20.822;2023-02-27T08:21:11;6.32;;;4.55;;
52776;SDS011;38656;54.260;20.822;2023-02-27T08:23:38;4.35;;;2.97;;
52776;SDS011;38656;54.260;20.822;2023-02-27T08:26:04;7.05;;;3.92;;
52776;SDS011;38656;54.260;20.822;2023-02-27T08:28:30;11.85;;;8.52;;
52776;SDS011;38656;54.260;20.822;2023-02-27T08:30:56;4.32;;;3.13;;
52776;SDS011;38656;54.260;20.822;2023-02-27T08:33:22;5.57;;;2.72;;
52776;SDS011;38656;54.260;20.822;2023-02-27T08:35:49;6.22;;;3.60;;
52776;SDS011;38656;54.260;20.822;2023-02-27T08:38:15;5.82;;;4.55;;
52776;SDS011;38656;54.260;20.822;2023-02-27T08:40:42;33.13;;;19.90;;
52776;SDS011;38656;54.260;20.822;2023-02-27T08:43:08;11.23;;;6.75;;
52776;SDS011;38656;54.260;20.822;2023-02-27T08:48:00;14.43;;;6.60;;
52776;SDS011;38656;54.260;20.822;2023-02-27T08:50:26;7.28;;;4.90;;
52776;SDS011;38656;54.260;20.822;2023-02-27T08:52:52;12.82;;;9.45;;
52776;SDS011;38656;54.260;20.822;2023-02-27T08:55:18;5.63;;;4.10;;
52776;SDS011;38656;54.260;20.822;2023-02-27T08:57:45;7.93;;;6.50;;
52776;SDS011;38656;54.260;20.822;2023-02-27T09:00:11;6.45;;;5.43;;
52776;SDS011;38656;54.260;20.822;2023-02-27T09:02:39;3.22;;;2.60;;
52776;SDS011;38656;54.260;20.822;2023-02-27T09:05:05;10.13;;;7.95;;
52776;SDS011;38656;54.260;20.822;2023-02-27T09:07:32;5.03;;;3.60;;
52776;SDS011;38656;54.260;20.822;2023-02-27T09:09:58;7.88;;;4.57;;
52776;SDS011;38656;54.260;20.822;2023-02-27T09:12:24;6.70;;;3.80;;
52776;SDS011;38656;54.260;20.822;2023-02-27T09:14:50;7.38;;;4.03;;
52776;SDS011;38656;54.260;20.822;2023-02-27T09:17:17;8.18;;;6.25;;
52776;SDS011;38656;54.260;20.822;2023-02-27T09:19:43;8.15;;;6.47;;
52776;SDS011;38656;54.260;20.822;2023-02-27T09:22:09;6.75;;;4.10;;
52776;SDS011;38656;54.260;20.822;2023-02-27T09:24:35;8.35;;;4.90;;
52776;SDS011;38656;54.260;20.822;2023-02-27T09:27:01;8.57;;;6.35;;
52776;SDS011;38656;54.260;20.822;2023-02-27T09:29:28;3.03;;;2.33;;
52776;SDS011;38656;54.260;20.822;2023-02-27T09:31:54;4.85;;;2.85;;
52776;SDS011;38656;54.260;20.822;2023-02-27T09:34:21;4.60;;;1.73;;
52776;SDS011;38656;54.260;20.822;2023-02-27T09:36:47;6.40;;;5.05;;
52776;SDS011;38656;54.260;20.822;2023-02-27T09:39:13;6.75;;;4.22;;
52776;SDS011;38656;54.260;20.822;2023-02-27T09:47:05;19.52;;;10.95;;
52776;SDS011;38656;54.260;20.822;2023-02-27T09:49:57;21.63;;;13.37;;
52776;SDS011;38656;54.260;20.822;2023-02-27T09:52:47;17.83;;;9.10;;
52776;SDS011;38656;54.260;20.822;2023-02-27T09:55:18;10.20;;;3.90;;
52776;SDS011;38656;54.260;20.822;2023-02-27T09:57:51;8.75;;;6.18;;
52776;SDS011;38656;54.260;20.822;2023-02-27T10:00:39;14.98;;;9.52;;
52776;SDS011;38656;54.260;20.822;2023-02-27T10:08:39;3.60;;;2.20;;
52776;SDS011;38656;54.260;20.822;2023-02-27T10:11:23;10.20;;;6.28;;
52776;SDS011;38656;54.260;20.822;2023-02-27T10:16:39;7.22;;;4.72;;
52776;SDS011;38656;54.260;20.822;2023-02-27T10:19:11;4.47;;;3.72;;
52776;SDS011;38656;54.260;20.822;2023-02-27T10:21:45;9.05;;;7.00;;
52776;SDS011;38656;54.260;20.822;2023-02-27T10:27:24;14.00;;;9.50;;
52776;SDS011;38656;54.260;20.822;2023-02-27T10:29:51;16.20;;;11.63;;
52776;SDS011;38656;54.260;20.822;2023-02-27T10:32:27;10.77;;;8.00;;
52776;SDS011;38656;54.260;20.822;2023-02-27T10:35:06;21.65;;;16.75;;
52776;SDS011;38656;54.260;20.822;2023-02-27T10:37:57;6.28;;;3.00;;
52776;SDS011;38656;54.260;20.822;2023-02-27T10:40:26;36.08;;;32.45;;
52776;SDS011;38656;54.260;20.822;2023-02-27T10:42:53;34.90;;;30.80;;
52776;SDS011;38656;54.260;20.822;2023-02-27T10:45:24;3.70;;;3.40;;
52776;SDS011;38656;54.260;20.822;2023-02-27T10:47:50;6.82;;;6.25;;
52776;SDS011;38656;54.260;20.822;2023-02-27T10:52:56;5.90;;;4.57;;
52776;SDS011;38656;54.260;20.822;2023-02-27T10:55:26;4.43;;;3.17;;
52776;SDS011;38656;54.260;20.822;2023-02-27T10:57:57;5.63;;;3.60;;
52776;SDS011;38656;54.260;20.822;2023-02-27T11:02:55;10.57;;;6.93;;
52776;SDS011;38656;54.260;20.822;2023-02-27T11:05:25;8.45;;;6.40;;
52776;SDS011;38656;54.260;20.822;2023-02-27T11:07:56;5.87;;;3.23;;
52776;SDS011;38656;54.260;20.822;2023-02-27T11:10:36;8.88;;;7.15;;
52776;SDS011;38656;54.260;20.822;2023-02-27T11:13:22;7.55;;;5.43;;
52776;SDS011;38656;54.260;20.822;2023-02-27T11:16:09;7.05;;;5.53;;
52776;SDS011;38656;54.260;20.822;2023-02-27T11:18:39;4.05;;;3.15;;
52776;SDS011;38656;54.260;20.822;2023-02-27T11:23:33;10.82;;;8.95;;
52776;SDS011;38656;54.260;20.822;2023-02-27T11:26:10;11.43;;;6.25;;
52776;SDS011;38656;54.260;20.822;2023-02-27T11:28:42;6.68;;;4.95;;
52776;SDS011;38656;54.260;20.822;2023-02-27T11:31:15;13.20;;;7.35;;
52776;SDS011;38656;54.260;20.822;2023-02-27T11:33:52;5.75;;;4.25;;
52776;SDS011;38656;54.260;20.822;2023-02-27T11:36:21;11.23;;;6.70;;
52776;SDS011;38656;54.260;20.822;2023-02-27T11:39:02;9.98;;;7.18;;
52776;SDS011;38656;54.260;20.822;2023-02-27T11:41:29;17.85;;;10.90;;
52776;SDS011;38656;54.260;20.822;2023-02-27T11:43:58;19.92;;;17.27;;
52776;SDS011;38656;54.260;20.822;2023-02-27T11:46:26;61.85;;;55.25;;
52776;SDS011;38656;54.260;20.822;2023-02-27T11:49:02;5.50;;;5.00;;
52776;SDS011;38656;54.260;20.822;2023-02-27T11:54:57;2.35;;;2.13;;
52776;SDS011;38656;54.260;20.822;2023-02-27T11:57:37;177.90;;;111.65;;
52776;SDS011;38656;54.260;20.822;2023-02-27T12:00:13;9.18;;;6.00;;
52776;SDS011;38656;54.260;20.822;2023-02-27T12:02:49;9.88;;;6.47;;
52776;SDS011;38656;54.260;20.822;2023-02-27T12:08:57;34.95;;;21.42;;
52776;SDS011;38656;54.260;20.822;2023-02-27T12:11:33;20.48;;;17.42;;
52776;SDS011;38656;54.260;20.822;2023-02-27T12:20:36;7.38;;;6.57;;
52776;SDS011;38656;54.260;20.822;2023-02-27T12:22:49;9.77;;;7.22;;
52776;SDS011;38656;54.260;20.822;2023-02-27T12:25:33;9.18;;;7.07;;
52776;SDS011;38656;54.260;20.822;2023-02-27T12:33:44;20.17;;;18.00;;
52776;SDS011;38656;54.260;20.822;2023-02-27T12:36:30;15.60;;;12.73;;
52776;SDS011;38656;54.260;20.822;2023-02-27T12:38:56;13.10;;;9.10;;
52776;SDS011;38656;54.260;20.822;2023-02-27T12:44:23;16.90;;;11.38;;
52776;SDS011;38656;54.260;20.822;2023-02-27T12:49:59;28.08;;;20.80;;
52776;SDS011;38656;54.260;20.822;2023-02-27T12:52:37;140.15;;;68.22;;
52776;SDS011;38656;54.260;20.822;2023-02-27T12:55:22;17.17;;;15.55;;
52776;SDS011;38656;54.260;20.822;2023-02-27T12:58:17;41.70;;;34.75;;
52776;SDS011;38656;54.260;20.822;2023-02-27T13:00:48;74.47;;;57.92;;
52776;SDS011;38656;54.260;20.822;2023-02-27T13:06:30;46.70;;;39.38;;
52776;SDS011;38656;54.260;20.822;2023-02-27T13:17:03;22.25;;;18.33;;
52776;SDS011;38656;54.260;20.822;2023-02-27T13:19:37;35.10;;;31.58;;
52776;SDS011;38656;54.260;20.822;2023-02-27T13:22:16;22.00;;;19.83;;
52776;SDS011;38656;54.260;20.822;2023-02-27T13:24:51;99.90;;;59.80;;
52776;SDS011;38656;54.260;20.822;2023-02-27T13:27:24;35.75;;;31.83;;
52776;SDS011;38656;54.260;20.822;2023-02-27T13:38:33;8.20;;;6.95;;
52776;SDS011;38656;54.260;20.822;2023-02-27T13:44:38;102.55;;;48.70;;
52776;SDS011;38656;54.260;20.822;2023-02-27T13:46:43;83.30;;;36.28;;
52776;SDS011;38656;54.260;20.822;2023-02-27T13:51:47;24.75;;;12.82;;
52776;SDS011;38656;54.260;20.822;2023-02-27T14:02:03;18.05;;;15.55;;
52776;SDS011;38656;54.260;20.822;2023-02-27T14:04:31;8.10;;;6.85;;
52776;SDS011;38656;54.260;20.822;2023-02-27T14:07:10;10.77;;;5.57;;
52776;SDS011;38656;54.260;20.822;2023-02-27T14:09:42;7.85;;;5.88;;
52776;SDS011;38656;54.260;20.822;2023-02-27T14:12:31;9.68;;;6.70;;
52776;SDS011;38656;54.260;20.822;2023-02-27T14:14:58;9.30;;;6.30;;
52776;SDS011;38656;54.260;20.822;2023-02-27T14:20:04;8.57;;;6.68;;
52776;SDS011;38656;54.260;20.822;2023-02-27T14:22:38;10.93;;;9.18;;
52776;SDS011;38656;54.260;20.822;2023-02-27T14:25:23;17.40;;;12.30;;
52776;SDS011;38656;54.260;20.822;2023-02-27T14:27:56;91.68;;;43.65;;
52776;SDS011;38656;54.260;20.822;2023-02-27T14:30:27;46.95;;;23.80;;
52776;SDS011;38656;54.260;20.822;2023-02-27T14:33:39;22.38;;;14.48;;
52776;SDS011;38656;54.260;20.822;2023-02-27T14:36:07;13.85;;;8.85;;
52776;SDS011;38656;54.260;20.822;2023-02-27T14:38:48;16.52;;;10.30;;
52776;SDS011;38656;54.260;20.822;2023-02-27T14:41:37;10.63;;;6.78;;
52776;SDS011;38656;54.260;20.822;2023-02-27T14:44:25;25.48;;;12.50;;
52776;SDS011;38656;54.260;20.822;2023-02-27T14:46:53;16.65;;;10.00;;
52776;SDS011;38656;54.260;20.822;2023-02-27T14:49:22;12.90;;;7.07;;
52776;SDS011;38656;54.260;20.822;2023-02-27T14:51:49;15.60;;;7.35;;
52776;SDS011;38656;54.260;20.822;2023-02-27T14:54:18;12.75;;;6.32;;
52776;SDS011;38656;54.260;20.822;2023-02-27T14:56:53;42.45;;;25.27;;
52776;SDS011;38656;54.260;20.822;2023-02-27T15:01:53;28.27;;;20.67;;
52776;SDS011;38656;54.260;20.822;2023-02-27T15:04:23;31.85;;;23.92;;
52776;SDS011;38656;54.260;20.822;2023-02-27T15:06:52;45.70;;;33.15;;
52776;SDS011;38656;54.260;20.822;2023-02-27T15:11:51;37.50;;;30.83;;
52776;SDS011;38656;54.260;20.822;2023-02-27T15:14:21;33.03;;;24.52;;
52776;SDS011;38656;54.260;20.822;2023-02-27T15:16:56;36.50;;;30.15;;
52776;SDS011;38656;54.260;20.822;2023-02-27T15:19:24;22.70;;;14.20;;
52776;SDS011;38656;54.260;20.822;2023-02-27T15:21:55;28.63;;;19.30;;
52776;SDS011;38656;54.260;20.822;2023-02-27T15:24:25;39.15;;;31.08;;
52776;SDS011;38656;54.260;20.822;2023-02-27T15:30:16;40.28;;;32.55;;
52776;SDS011;38656;54.260;20.822;2023-02-27T15:32:20;40.88;;;36.53;;
52776;SDS011;38656;54.260;20.822;2023-02-27T15:34:48;40.42;;;35.97;;
52776;SDS011;38656;54.260;20.822;2023-02-27T15:37:22;24.80;;;14.98;;
52776;SDS011;38656;54.260;20.822;2023-02-27T15:39:54;27.73;;;17.25;;
52776;SDS011;38656;54.260;20.822;2023-02-27T15:42:28;26.92;;;15.82;;
52776;SDS011;38656;54.260;20.822;2023-02-27T15:44:57;31.83;;;23.08;;
52776;SDS011;38656;54.260;20.822;2023-02-27T15:47:25;79.38;;;48.58;;
52776;SDS011;38656;54.260;20.822;2023-02-27T15:50:00;106.35;;;52.97;;
52776;SDS011;38656;54.260;20.822;2023-02-27T15:52:42;55.53;;;34.60;;
52776;SDS011;38656;54.260;20.822;2023-02-27T15:57:48;32.22;;;24.38;;
52776;SDS011;38656;54.260;20.822;2023-02-27T16:00:15;26.25;;;14.18;;
52776;SDS011;38656;54.260;20.822;2023-02-27T16:02:47;27.45;;;20.02;;
52776;SDS011;38656;54.260;20.822;2023-02-27T16:05:17;16.20;;;12.10;;
52776;SDS011;38656;54.260;20.822;2023-02-27T16:07:46;19.67;;;16.98;;
52776;SDS011;38656;54.260;20.822;2023-02-27T16:10:18;26.65;;;17.65;;
52776;SDS011;38656;54.260;20.822;2023-02-27T16:12:50;38.17;;;25.33;;
52776;SDS011;38656;54.260;20.822;2023-02-27T16:15:29;32.53;;;22.00;;
52776;SDS011;38656;54.260;20.822;2023-02-27T16:28:33;38.90;;;27.10;;
52776;SDS011;38656;54.260;20.822;2023-02-27T16:33:55;39.75;;;25.42;;
52776;SDS011;38656;54.260;20.822;2023-02-27T16:36:24;40.50;;;22.27;;
52776;SDS011;38656;54.260;20.822;2023-02-27T16:38:52;38.53;;;24.33;;
52776;SDS011;38656;54.260;20.822;2023-02-27T16:41:20;110.78;;;55.15;;
52776;SDS011;38656;54.260;20.822;2023-02-27T16:43:48;55.38;;;33.67;;
52776;SDS011;38656;54.260;20.822;2023-02-27T16:46:17;40.45;;;25.70;;
52776;SDS011;38656;54.260;20.822;2023-02-27T16:48:48;28.52;;;21.08;;
52776;SDS011;38656;54.260;20.822;2023-02-27T16:51:20;55.72;;;35.45;;
52776;SDS011;38656;54.260;20.822;2023-02-27T16:53:48;85.72;;;43.55;;
52776;SDS011;38656;54.260;20.822;2023-02-27T16:56:15;67.30;;;34.47;;
52776;SDS011;38656;54.260;20.822;2023-02-27T16:58:43;92.93;;;40.67;;
52776;SDS011;38656;54.260;20.822;2023-02-27T17:01:10;47.70;;;28.15;;
52776;SDS011;38656;54.260;20.822;2023-02-27T17:03:42;48.60;;;30.30;;
52776;SDS011;38656;54.260;20.822;2023-02-27T17:06:09;60.03;;;33.17;;
52776;SDS011;38656;54.260;20.822;2023-02-27T17:08:37;58.70;;;36.72;;
52776;SDS011;38656;54.260;20.822;2023-02-27T17:11:04;74.53;;;43.03;;
52776;SDS011;38656;54.260;20.822;2023-02-27T17:13:32;110.53;;;51.80;;
52776;SDS011;38656;54.260;20.822;2023-02-27T17:16:00;131.73;;;56.72;;
52776;SDS011;38656;54.260;20.822;2023-02-27T17:18:27;125.28;;;56.80;;
52776;SDS011;38656;54.260;20.822;2023-02-27T17:20:54;174.57;;;68.30;;
52776;SDS011;38656;54.260;20.822;2023-02-27T17:23:23;217.85;;;88.50;;
52776;SDS011;38656;54.260;20.822;2023-02-27T17:25:51;246.82;;;90.95;;
52776;SDS011;38656;54.260;20.822;2023-02-27T17:28:18;238.90;;;92.20;;
52776;SDS011;38656;54.260;20.822;2023-02-27T17:30:45;229.88;;;90.97;;
52776;SDS011;38656;54.260;20.822;2023-02-27T17:33:11;206.30;;;81.03;;
52776;SDS011;38656;54.260;20.822;2023-02-27T17:35:38;230.90;;;89.13;;
52776;SDS011;38656;54.260;20.822;2023-02-27T17:38:04;206.98;;;83.63;;